createdAt,value
2018-03-16T00:01:45.259Z,98448.67
2018-03-16T00:04:14.598Z,98451.69
2018-03-16T00:06:43.940Z,98456.25
2018-03-16T00:09:13.154Z,98455.86
2018-03-16T00:11:42.348Z,98456.87
2018-03-16T00:14:11.826Z,98464.19
2018-03-16T00:16:41.828Z,98466.44
2018-03-16T00:19:11.055Z,98460.08
2018-03-16T00:21:40.306Z,98467.49
2018-03-16T00:24:09.677Z,98468.75
2018-03-16T00:26:39.017Z,98471.84
2018-03-16T00:29:08.059Z,98483.81
2018-03-16T00:31:37.279Z,98485.16
2018-03-16T00:34:06.483Z,98490.95
2018-03-16T00:36:35.700Z,98488.47
2018-03-16T00:39:04.933Z,98488.16
2018-03-16T00:41:34.901Z,98494.91
2018-03-16T00:44:04.131Z,98502.14
2018-03-16T00:46:34.096Z,98496.08
2018-03-16T00:49:03.264Z,98493.50
2018-03-16T00:51:32.510Z,98492.98
2018-03-16T00:54:01.718Z,98489.89
2018-03-16T00:56:30.936Z,98492.02
2018-03-16T00:59:00.194Z,98494.49
2018-03-16T01:01:29.475Z,98499.39
2018-03-16T01:03:59.398Z,98491.39
2018-03-16T01:06:28.616Z,98494.83
2018-03-16T01:08:57.802Z,98498.26
2018-03-16T01:11:27.027Z,98500.22
2018-03-16T01:13:56.231Z,98496.91
2018-03-16T01:16:25.447Z,98494.87
2018-03-16T01:18:55.390Z,98488.53
2018-03-16T01:21:24.603Z,98483.70
2018-03-16T01:23:53.863Z,98487.79
2018-03-16T01:26:23.806Z,98489.69
2018-03-16T01:28:53.014Z,98476.20
2018-03-16T01:31:22.442Z,98486.48
2018-03-16T01:33:52.555Z,98488.14
2018-03-16T01:36:21.779Z,98486.91
2018-03-16T01:38:51.022Z,98485.95
2018-03-16T01:41:20.225Z,98499.04
2018-03-16T01:43:49.463Z,98502.47
2018-03-16T01:46:18.655Z,98497.30
2018-03-16T01:48:47.877Z,98484.33
2018-03-16T01:51:17.095Z,98496.38
2018-03-16T01:53:46.322Z,98489.41
2018-03-16T01:56:15.557Z,98493.91
2018-03-16T01:58:45.537Z,98495.61
2018-03-16T02:01:15.423Z,98497.64
2018-03-16T02:03:44.719Z,98490.71
2018-03-16T02:06:14.667Z,98501.44
2018-03-16T02:08:43.922Z,98498.63
2018-03-16T02:11:13.143Z,98493.63
2018-03-16T02:13:42.347Z,98499.02
2018-03-16T02:16:11.605Z,98499.36
2018-03-16T02:18:42.051Z,98497.20
2018-03-16T02:21:11.270Z,98495.63
2018-03-16T02:23:40.508Z,98491.64
2018-03-16T02:26:10.643Z,98495.69
2018-03-16T02:28:40.630Z,98489.96
2018-03-16T02:31:09.847Z,98490.52
2018-03-16T02:33:39.903Z,98488.78
2018-03-16T02:36:09.857Z,98496.87
2018-03-16T02:38:39.058Z,98493.61
2018-03-16T02:41:09.270Z,98491.03
2018-03-16T02:43:38.464Z,98487.95
2018-03-16T02:46:07.693Z,98498.83
2018-03-16T02:48:37.648Z,98485.83
2018-03-16T02:51:06.867Z,98495.02
2018-03-16T02:53:36.107Z,98488.02
2018-03-16T02:56:06.145Z,98487.71
2018-03-16T02:58:35.363Z,98486.25
2018-03-16T03:01:05.390Z,98487.95
2018-03-16T03:03:34.611Z,98493.27
2018-03-16T03:06:03.802Z,98494.56
2018-03-16T03:08:33.014Z,98487.04
2018-03-16T03:11:02.219Z,98492.21
2018-03-16T03:13:32.211Z,98495.97
2018-03-16T03:16:01.407Z,98501.72
2018-03-16T03:18:30.618Z,98499.43
2018-03-16T03:21:00.127Z,98503.30
2018-03-16T03:23:29.351Z,98502.02
2018-03-16T03:25:58.559Z,98507.11
2018-03-16T03:28:27.836Z,98504.41
2018-03-16T03:30:57.779Z,98515.00
2018-03-16T03:33:27.513Z,98518.03
2018-03-16T03:35:56.756Z,98524.20
2018-03-16T03:38:26.737Z,98525.84
2018-03-16T03:40:55.951Z,98519.80
2018-03-16T03:43:25.915Z,98520.84
2018-03-16T03:45:55.114Z,98525.92
2018-03-16T03:48:24.344Z,98526.59
2018-03-16T03:50:53.590Z,98526.97
2018-03-16T03:53:23.553Z,98522.25
2018-03-16T03:55:52.786Z,98530.08
2018-03-16T03:58:22.738Z,98527.67
2018-03-16T04:00:51.952Z,98531.98
2018-03-16T04:03:21.139Z,98530.78
2018-03-16T04:05:50.406Z,98528.81
2018-03-16T04:08:20.575Z,98536.67
2018-03-16T04:10:49.818Z,98531.54
2018-03-16T04:13:18.999Z,98538.27
2018-03-16T04:15:48.989Z,98528.17
2018-03-16T04:18:18.203Z,98532.71
2018-03-16T04:20:47.438Z,98531.28
2018-03-16T04:23:16.727Z,98531.14
2018-03-16T04:25:46.761Z,98535.09
2018-03-16T04:28:16.308Z,98531.41
2018-03-16T04:30:45.662Z,98533.23
2018-03-16T04:33:14.866Z,98538.53
2018-03-16T04:35:44.101Z,98538.39
2018-03-16T04:38:13.295Z,98537.60
2018-03-16T04:40:42.514Z,98546.44
2018-03-16T04:43:11.730Z,98549.20
2018-03-16T04:45:40.970Z,98553.20
2018-03-16T04:48:10.486Z,98553.61
2018-03-16T04:50:39.674Z,98556.24
2018-03-16T04:53:08.875Z,98560.45
2018-03-16T04:55:38.078Z,98556.58
2018-03-16T04:58:07.330Z,98558.89
2018-03-16T05:00:37.339Z,98564.45
2018-03-16T05:03:06.947Z,98567.58
2018-03-16T05:05:36.924Z,98566.69
2018-03-16T05:08:06.976Z,98561.41
2018-03-16T05:10:36.948Z,98569.55
2018-03-16T05:13:06.142Z,98566.29
2018-03-16T05:15:35.338Z,98570.50
2018-03-16T05:18:05.335Z,98573.25
2018-03-16T05:20:34.532Z,98579.20
2018-03-16T05:23:03.772Z,98578.57
2018-03-16T05:25:32.958Z,98576.34
2018-03-16T05:28:02.392Z,98582.61
2018-03-16T05:30:31.590Z,98589.58
2018-03-16T05:33:01.550Z,98585.88
2018-03-16T05:35:30.754Z,98590.85
2018-03-16T05:37:59.974Z,98584.74
2018-03-16T05:40:29.219Z,98595.34
2018-03-16T05:42:59.211Z,98599.00
2018-03-16T05:45:28.451Z,98599.83
2018-03-16T05:47:57.664Z,98597.08
2018-03-16T05:50:26.860Z,98605.45
2018-03-16T05:52:56.139Z,98601.65
2018-03-16T05:55:25.343Z,98607.03
2018-03-16T05:57:54.544Z,98609.83
2018-03-16T06:00:23.771Z,98611.16
2018-03-16T06:02:52.978Z,98614.81
2018-03-16T06:05:22.192Z,98615.38
2018-03-16T06:07:51.442Z,98614.92
2018-03-16T06:10:20.625Z,98621.83
2018-03-16T06:12:49.865Z,98618.68
2018-03-16T06:15:19.119Z,98624.45
2018-03-16T06:17:48.332Z,98623.84
2018-03-16T06:20:17.664Z,98624.97
2018-03-16T06:22:46.863Z,98631.23
2018-03-16T06:25:16.070Z,98629.76
2018-03-16T06:27:45.264Z,98636.65
2018-03-16T06:30:14.520Z,98630.48
2018-03-16T06:32:43.743Z,98639.58
2018-03-16T06:35:13.028Z,98645.37
2018-03-16T06:37:42.222Z,98643.08
2018-03-16T06:40:11.446Z,98647.61
2018-03-16T06:42:40.615Z,98660.98
2018-03-16T06:45:09.823Z,98654.66
2018-03-16T06:47:38.999Z,98653.31
2018-03-16T06:50:08.242Z,98660.13
2018-03-16T06:52:37.440Z,98659.73
2018-03-16T06:55:06.638Z,98659.11
2018-03-16T06:57:35.943Z,98664.33
2018-03-16T07:00:05.135Z,98666.00
2018-03-16T07:02:34.340Z,98673.25
2018-03-16T07:05:03.582Z,98673.05
2018-03-16T07:07:32.791Z,98682.19
2018-03-16T07:10:02.126Z,98675.82
2018-03-16T07:12:31.376Z,98683.02
2018-03-16T07:15:38.426Z,98682.69
2018-03-16T07:18:08.492Z,98694.02
2018-03-16T07:20:37.702Z,98697.78
2018-03-16T07:23:06.910Z,98699.22
2018-03-16T07:25:36.925Z,98703.11
2018-03-16T07:28:06.122Z,98707.44
2018-03-16T07:30:35.340Z,98709.73
2018-03-16T07:33:04.543Z,98706.09
2018-03-16T07:35:34.568Z,98710.84
2018-03-16T07:38:03.775Z,98707.36
2018-03-16T07:40:33.775Z,98712.42
2018-03-16T07:43:03.774Z,98717.47
2018-03-16T07:45:38.317Z,98719.77
2018-03-16T07:48:08.345Z,98728.63
2018-03-16T07:50:38.322Z,98731.39
2018-03-16T07:53:07.551Z,98727.37
2018-03-16T07:55:36.828Z,98728.32
2018-03-16T07:58:06.023Z,98734.31
2018-03-16T08:00:35.221Z,98742.53
2018-03-16T08:03:05.239Z,98741.74
2018-03-16T08:05:34.456Z,98756.36
2018-03-16T08:08:04.438Z,98751.64
2018-03-16T08:10:33.668Z,98749.66
2018-03-16T08:13:03.654Z,98758.89
2018-03-16T08:15:32.835Z,98761.11
2018-03-16T08:18:02.038Z,98763.01
2018-03-16T08:20:31.236Z,98764.59
2018-03-16T08:23:00.463Z,98776.21
2018-03-16T08:25:29.766Z,98776.13
2018-03-16T08:27:59.789Z,98786.27
2018-03-16T08:30:29.032Z,98784.13
2018-03-16T08:32:58.253Z,98781.28
2018-03-16T08:35:28.227Z,98784.83
2018-03-16T08:37:57.440Z,98787.91
2018-03-16T08:40:26.639Z,98797.16
2018-03-16T08:42:55.860Z,98790.38
2018-03-16T08:45:25.062Z,98786.64
2018-03-16T08:47:54.291Z,98788.38
2018-03-16T08:50:24.255Z,98789.91
2018-03-16T08:52:53.467Z,98789.19
2018-03-16T08:55:22.677Z,98791.17
2018-03-16T08:57:51.897Z,98784.67
2018-03-16T09:00:21.878Z,98790.91
2018-03-16T09:02:51.119Z,98786.09
2018-03-16T09:05:20.339Z,98787.22
2018-03-16T09:07:49.550Z,98794.03
2018-03-16T09:10:18.763Z,98793.22
2018-03-16T09:12:48.051Z,98793.38
2018-03-16T09:15:17.267Z,98798.44
2018-03-16T09:17:46.518Z,98806.43
2018-03-16T09:20:15.717Z,98798.53
2018-03-16T09:22:44.994Z,98805.27
2018-03-16T09:25:14.978Z,98805.00
2018-03-16T09:27:44.210Z,98805.66
2018-03-16T09:30:14.216Z,98808.33
2018-03-16T09:32:43.434Z,98808.73
2018-03-16T09:35:12.835Z,98804.23
2018-03-16T09:37:42.100Z,98808.11
2018-03-16T09:40:11.355Z,98802.48
2018-03-16T09:42:40.827Z,98814.77
2018-03-16T09:45:10.790Z,98821.17
2018-03-16T09:47:40.013Z,98818.39
2018-03-16T09:50:09.225Z,98818.30
2018-03-16T09:52:38.450Z,98823.14
2018-03-16T09:55:25.532Z,98820.60
2018-03-16T09:57:54.772Z,98821.86
2018-03-16T10:00:23.972Z,98825.98
2018-03-16T10:02:53.194Z,98825.83
2018-03-16T10:05:22.462Z,98830.89
2018-03-16T10:07:51.664Z,98841.23
2018-03-16T10:10:20.888Z,98836.41
2018-03-16T10:12:50.203Z,98837.36
2018-03-16T10:15:19.458Z,98836.83
2018-03-16T10:17:48.949Z,98838.16
2018-03-16T10:20:18.986Z,98837.84
2018-03-16T10:22:48.956Z,98845.59
2018-03-16T10:25:18.163Z,98837.22
2018-03-16T10:27:48.251Z,98825.96
2018-03-16T10:30:17.476Z,98832.46
2018-03-16T10:32:46.686Z,98840.77
2018-03-16T10:35:16.656Z,98844.02
2018-03-16T10:37:45.866Z,98842.67
2018-03-16T10:40:15.094Z,98834.20
2018-03-16T10:42:44.525Z,98842.56
2018-03-16T10:45:13.746Z,98836.20
2018-03-16T10:47:42.983Z,98845.77
2018-03-16T10:50:13.029Z,98850.11
2018-03-16T10:52:42.999Z,98845.34
2018-03-16T10:55:12.177Z,98853.36
2018-03-16T10:57:41.372Z,98862.81
2018-03-16T11:00:10.591Z,98872.09
2018-03-16T11:02:45.248Z,98871.22
2018-03-16T11:05:18.625Z,98888.32
2018-03-16T11:08:05.396Z,98889.36
2018-03-16T11:10:35.360Z,98893.81
2018-03-16T11:13:05.367Z,98901.64
2018-03-16T11:15:35.304Z,98894.82
2018-03-16T11:18:04.501Z,98887.94
2018-03-16T11:20:33.725Z,98899.03
2018-03-16T11:23:02.920Z,98895.95
2018-03-16T11:25:32.116Z,98893.02
2018-03-16T11:28:01.318Z,98904.73
2018-03-16T11:30:30.839Z,98901.79
2018-03-16T11:32:59.983Z,98917.16
2018-03-16T11:35:29.264Z,98906.69
2018-03-16T11:37:58.502Z,98910.91
2018-03-16T11:40:27.723Z,98899.02
2018-03-16T11:42:57.173Z,98905.52
2018-03-16T11:45:26.390Z,98913.91
2018-03-16T11:47:55.595Z,98906.47
2018-03-16T11:50:24.921Z,98910.67
2018-03-16T11:52:54.114Z,98907.02
2018-03-16T11:55:23.704Z,98913.00
2018-03-16T11:57:53.700Z,98920.61
2018-03-16T12:00:23.234Z,98916.89
2018-03-16T12:02:52.527Z,98913.50
2018-03-16T12:05:22.498Z,98920.21
2018-03-16T12:07:52.562Z,98917.98
2018-03-16T12:10:21.846Z,98920.14
2018-03-16T12:12:51.173Z,98918.47
2018-03-16T12:15:20.439Z,98920.77
2018-03-16T12:17:49.666Z,98931.43
2018-03-16T12:20:18.851Z,98928.59
2018-03-16T12:22:48.071Z,98927.41
2018-03-16T12:25:17.268Z,98916.33
2018-03-16T12:27:46.484Z,98928.03
2018-03-16T12:30:15.766Z,98925.34
2018-03-16T12:32:44.979Z,98928.58
2018-03-16T12:35:14.224Z,98927.16
2018-03-16T12:37:43.391Z,98934.70
2018-03-16T12:40:13.371Z,98940.72
2018-03-16T12:42:42.648Z,98931.78
2018-03-16T12:45:12.565Z,98942.61
2018-03-16T12:47:41.810Z,98944.02
2018-03-16T12:50:11.845Z,98941.64
2018-03-16T12:52:41.832Z,98941.25
2018-03-16T12:55:11.040Z,98940.14
2018-03-16T12:57:40.498Z,98942.13
2018-03-16T13:00:09.724Z,98941.94
2018-03-16T13:02:39.839Z,98960.44
2018-03-16T13:05:09.058Z,98938.27
2018-03-16T13:07:38.405Z,98951.39
2018-03-16T13:10:07.613Z,98950.39
2018-03-16T13:12:37.672Z,98952.73
2018-03-16T13:15:06.887Z,98965.23
2018-03-16T13:17:36.859Z,98958.43
2018-03-16T13:20:06.082Z,98965.00
2018-03-16T13:22:35.301Z,98966.86
2018-03-16T13:25:05.277Z,98963.83
2018-03-16T13:27:34.559Z,98973.11
2018-03-16T13:30:03.808Z,98971.66
2018-03-16T13:32:33.784Z,98987.45
2018-03-16T13:35:03.058Z,98977.98
2018-03-16T13:37:32.267Z,98987.85
2018-03-16T13:40:01.501Z,98982.88
2018-03-16T13:42:30.703Z,98982.17
2018-03-16T13:44:59.973Z,98976.00
2018-03-16T13:47:29.245Z,98968.81
2018-03-16T13:49:58.504Z,98967.00
2018-03-16T13:52:28.496Z,98966.41
2018-03-16T13:54:57.711Z,98973.36
2018-03-16T13:57:27.164Z,98983.08
2018-03-16T13:59:56.418Z,98979.75
2018-03-16T14:02:25.648Z,98980.27
2018-03-16T14:04:54.838Z,98972.64
2018-03-16T14:07:24.063Z,98983.03
2018-03-16T14:09:53.287Z,98981.86
2018-03-16T14:12:22.617Z,98993.70
2018-03-16T14:14:51.815Z,98995.20
2018-03-16T14:17:21.793Z,98997.77
2018-03-16T14:19:51.029Z,98998.48
2018-03-16T14:22:21.110Z,98999.10
2018-03-16T14:24:50.359Z,99007.91
2018-03-16T14:27:19.605Z,99012.56
2018-03-16T14:29:48.822Z,99012.92
2018-03-16T14:32:18.036Z,99026.28
2018-03-16T14:34:48.226Z,99014.03
2018-03-16T14:37:17.475Z,99019.33
2018-03-16T14:39:46.694Z,99024.64
2018-03-16T14:42:16.002Z,99018.45
2018-03-16T14:44:45.181Z,99020.82
2018-03-16T14:47:14.470Z,99029.03
2018-03-16T14:49:43.626Z,99026.70
2018-03-16T14:52:12.849Z,99029.30
2018-03-16T14:54:42.961Z,99038.25
2018-03-16T14:57:13.149Z,99033.80
2018-03-16T14:59:42.368Z,99029.16
2018-03-16T15:02:11.729Z,99042.63
2018-03-16T15:04:40.936Z,99031.78
2018-03-16T15:07:10.219Z,99047.55
2018-03-16T15:09:39.463Z,99043.70
2018-03-16T15:12:09.535Z,99046.33
2018-03-16T15:14:38.803Z,99051.37
2018-03-16T15:17:08.811Z,99061.41
2018-03-16T15:19:38.821Z,99050.78
2018-03-16T15:22:08.835Z,99043.66
2018-03-16T15:24:38.866Z,99036.56
2018-03-16T15:27:08.867Z,99038.84
2018-03-16T15:29:39.000Z,99051.01
2018-03-16T15:32:08.144Z,99039.09
2018-03-16T15:34:37.336Z,99050.39
2018-03-16T15:37:06.567Z,99052.20
2018-03-16T15:39:35.786Z,99056.86
2018-03-16T15:42:05.827Z,99048.58
2018-03-16T15:44:35.091Z,99055.43
2018-03-16T15:47:05.539Z,99054.03
2018-03-16T15:49:34.748Z,99058.36
2018-03-16T15:52:03.990Z,99057.56
2018-03-16T15:54:33.986Z,99049.44
2018-03-16T15:57:03.197Z,99048.19
2018-03-16T15:59:32.431Z,99057.91
2018-03-16T16:02:01.667Z,99056.92
2018-03-16T16:04:30.866Z,99068.30
2018-03-16T16:07:00.096Z,99065.77
2018-03-16T16:09:29.411Z,99071.37
2018-03-16T16:11:59.424Z,99071.13
2018-03-16T16:14:28.662Z,99086.02
2018-03-16T16:16:57.994Z,99078.77
2018-03-16T16:19:27.264Z,99071.67
2018-03-16T16:21:57.370Z,99086.59
2018-03-16T16:24:26.853Z,99087.34
2018-03-16T16:26:56.095Z,99096.96
2018-03-16T16:29:25.344Z,99102.77
2018-03-16T16:31:54.574Z,99100.01
2018-03-16T16:34:23.793Z,99100.31
2018-03-16T16:36:53.029Z,99103.29
2018-03-16T16:39:22.263Z,99110.78
2018-03-16T16:41:51.463Z,99106.75
2018-03-16T16:44:20.667Z,99109.59
2018-03-16T16:46:49.898Z,99117.76
2018-03-16T16:49:19.126Z,99124.23
2018-03-16T16:51:48.369Z,99118.25
2018-03-16T16:54:17.561Z,99115.50
2018-03-16T16:56:46.780Z,99112.01
2018-03-16T16:59:16.003Z,99123.06
2018-03-16T17:01:45.207Z,99139.87
2018-03-16T17:04:14.659Z,99133.83
2018-03-16T17:06:43.864Z,99139.58
2018-03-16T17:09:13.927Z,99139.80
2018-03-16T17:11:43.936Z,99142.63
2018-03-16T17:14:13.142Z,99150.42
2018-03-16T17:16:42.369Z,99153.61
2018-03-16T17:19:11.567Z,99157.48
2018-03-16T17:21:40.816Z,99155.52
2018-03-16T17:24:10.060Z,99162.11
2018-03-16T17:26:39.330Z,99159.14
2018-03-16T17:29:08.552Z,99182.62
2018-03-16T17:31:38.514Z,99173.91
2018-03-16T17:34:07.739Z,99178.91
2018-03-16T17:36:37.027Z,99179.70
2018-03-16T17:39:06.204Z,99173.56
2018-03-16T17:41:35.496Z,99183.96
2018-03-16T17:44:04.729Z,99185.05
2018-03-16T17:46:33.992Z,99191.61
2018-03-16T17:49:03.214Z,99196.06
2018-03-16T17:51:32.439Z,99202.02
2018-03-16T17:54:02.455Z,99194.52
2018-03-16T17:56:32.452Z,99192.55
2018-03-16T17:59:01.725Z,99205.17
2018-03-16T18:01:30.927Z,99205.28
2018-03-16T18:04:00.164Z,99199.42
2018-03-16T18:06:29.460Z,99198.59
2018-03-16T18:08:58.703Z,99197.30
2018-03-16T18:11:27.907Z,99208.49
2018-03-16T18:13:57.151Z,99214.89
2018-03-16T18:16:26.367Z,99221.63
2018-03-16T18:18:55.625Z,99219.61
2018-03-16T18:21:25.009Z,99223.66
2018-03-16T18:23:54.230Z,99226.59
2018-03-16T18:26:23.458Z,99223.70
2018-03-16T18:28:53.496Z,99237.23
2018-03-16T18:31:22.856Z,99228.41
2018-03-16T18:33:52.079Z,99234.27
2018-03-16T18:36:22.072Z,99235.14
2018-03-16T18:38:52.083Z,99237.81
2018-03-16T18:41:21.372Z,99233.95
2018-03-16T18:43:50.786Z,99231.22
2018-03-16T18:46:20.783Z,99251.72
2018-03-16T18:48:50.019Z,99247.10
2018-03-16T18:51:20.107Z,99247.14
2018-03-16T18:53:49.430Z,99256.54
2018-03-16T18:56:18.806Z,99250.80
2018-03-16T18:58:48.020Z,99256.00
2018-03-16T19:01:18.010Z,99260.30
2018-03-16T19:03:47.228Z,99263.52
2018-03-16T19:06:16.477Z,99261.53
2018-03-16T19:08:45.778Z,99255.93
2018-03-16T19:11:15.878Z,99257.84
2018-03-16T19:13:45.900Z,99253.08
2018-03-16T19:16:15.260Z,99257.77
2018-03-16T19:18:44.496Z,99251.09
2018-03-16T19:21:14.480Z,99266.33
2018-03-16T19:23:43.837Z,99266.88
2018-03-16T19:26:13.110Z,99272.80
2018-03-16T19:28:43.135Z,99271.75
2018-03-16T19:31:13.113Z,99272.44
2018-03-16T19:33:42.338Z,99267.20
2018-03-16T19:36:12.342Z,99272.14
2018-03-16T19:38:42.424Z,99268.02
2018-03-16T19:41:11.625Z,99272.06
2018-03-16T19:43:40.859Z,99268.17
2018-03-16T19:46:10.910Z,99269.91
2018-03-16T19:48:40.225Z,99264.95
2018-03-16T19:51:09.528Z,99266.87
2018-03-16T19:53:38.779Z,99273.83
2018-03-16T19:56:09.022Z,99270.66
2018-03-16T19:58:38.988Z,99270.22
2018-03-16T20:01:08.186Z,99271.84
2018-03-16T20:03:37.416Z,99279.06
2018-03-16T20:06:06.657Z,99279.97
2018-03-16T20:08:35.888Z,99278.13
2018-03-16T20:11:05.966Z,99281.88
2018-03-16T20:13:35.403Z,99286.14
2018-03-16T20:16:04.612Z,99286.14
2018-03-16T20:18:34.705Z,99276.80
2018-03-16T20:21:03.956Z,99289.76
2018-03-16T20:23:33.191Z,99295.07
2018-03-16T20:26:02.458Z,99297.75
2018-03-16T20:28:31.674Z,99307.21
2018-03-16T20:31:00.952Z,99307.86
2018-03-16T20:33:30.168Z,99313.75
2018-03-16T20:35:59.643Z,99310.28
2018-03-16T20:38:29.738Z,99303.92
2018-03-16T20:40:59.739Z,99315.15
2018-03-16T20:43:29.001Z,99316.34
2018-03-16T20:45:58.226Z,99322.08
2018-03-16T20:48:27.446Z,99323.16
2018-03-16T20:50:56.704Z,99322.00
2018-03-16T20:53:25.924Z,99331.89
2018-03-16T20:55:55.154Z,99324.27
2018-03-16T20:58:25.157Z,99331.27
2018-03-16T21:00:55.157Z,99322.82
2018-03-16T21:03:24.429Z,99333.37
2018-03-16T21:05:53.712Z,99329.22
2018-03-16T21:08:22.958Z,99334.73
2018-03-16T21:10:52.183Z,99327.11
2018-03-16T21:13:22.150Z,99328.90
2018-03-16T21:15:51.379Z,99329.84
2018-03-16T21:18:21.380Z,99336.09
2018-03-16T21:20:51.444Z,99343.34
2018-03-16T21:23:20.634Z,99338.79
2018-03-16T21:25:49.952Z,99334.92
2018-03-16T21:28:19.508Z,99335.17
2018-03-16T21:30:49.697Z,99333.45
2018-03-16T21:33:19.987Z,99332.80
2018-03-16T21:35:49.209Z,99337.31
2018-03-16T21:38:18.431Z,99344.39
2018-03-16T21:40:49.190Z,99331.97
2018-03-16T21:43:18.391Z,99345.02
2018-03-16T21:45:47.881Z,99346.36
2018-03-16T21:48:18.699Z,99344.17
2018-03-16T21:50:47.935Z,99343.94
2018-03-16T21:53:18.670Z,99342.63
2018-03-16T21:55:48.675Z,99346.89
2018-03-16T21:58:18.668Z,99349.31
2018-03-16T22:00:47.947Z,99340.36
2018-03-16T22:03:17.237Z,99350.27
2018-03-16T22:05:46.491Z,99349.61
2018-03-16T22:08:16.475Z,99350.67
2018-03-16T22:10:45.848Z,99350.02
2018-03-16T22:13:15.074Z,99354.98
2018-03-16T22:15:44.289Z,99350.30
2018-03-16T22:18:13.603Z,99347.37
2018-03-16T22:20:43.747Z,99347.25
2018-03-16T22:23:12.992Z,99356.58
2018-03-16T22:25:42.171Z,99346.66
2018-03-16T22:28:11.411Z,99349.08
2018-03-16T22:30:41.402Z,99353.11
2018-03-16T22:33:10.618Z,99355.54
2018-03-16T22:35:40.631Z,99352.64
2018-03-16T22:38:09.895Z,99353.72
2018-03-16T22:40:39.108Z,99364.19
2018-03-16T22:43:08.366Z,99362.61
2018-03-16T22:45:37.616Z,99356.13
2018-03-16T22:48:06.847Z,99366.25
2018-03-16T22:50:36.813Z,99351.21
2018-03-16T22:53:06.068Z,99356.41
2018-03-16T22:55:35.321Z,99368.03
2018-03-16T22:58:05.315Z,99365.11
2018-03-16T23:00:34.545Z,99358.03
2018-03-16T23:03:03.780Z,99366.29
2018-03-16T23:05:32.979Z,99360.31
2018-03-16T23:08:02.195Z,99376.06
2018-03-16T23:10:31.446Z,99364.34
2018-03-16T23:13:01.490Z,99357.91
2018-03-16T23:15:30.814Z,99369.40
2018-03-16T23:18:00.050Z,99357.67
2018-03-16T23:20:29.564Z,99363.28
2018-03-16T23:22:59.548Z,99356.22
2018-03-16T23:25:28.786Z,99363.92
2018-03-16T23:27:58.754Z,99356.73
2018-03-16T23:30:28.027Z,99357.38
2018-03-16T23:32:57.243Z,99367.80
2018-03-16T23:35:26.488Z,99366.21
2018-03-16T23:37:56.468Z,99365.27
2018-03-16T23:40:25.699Z,99364.75
2018-03-16T23:42:55.834Z,99361.94
2018-03-16T23:45:25.106Z,99362.34
2018-03-16T23:47:54.312Z,99358.21
2018-03-16T23:50:24.386Z,99353.41
2018-03-16T23:52:53.642Z,99352.73
2018-03-16T23:55:23.640Z,99357.39
2018-03-16T23:57:52.884Z,99355.95
